createdAt,value
2022-09-21T00:01:33.643Z,101916.41
2022-09-21T00:04:03.655Z,101919.63
2022-09-21T00:06:34.858Z,101924.03
2022-09-21T00:09:04.948Z,101932.84
2022-09-21T00:11:34.189Z,101920.34
2022-09-21T00:14:07.170Z,101927.09
2022-09-21T00:16:35.751Z,101919.31
2022-09-21T00:19:03.685Z,101923.56
2022-09-21T00:21:31.867Z,101915.59
2022-09-21T00:24:00.508Z,101921.84
2022-09-21T00:26:28.575Z,101924.09
2022-09-21T00:28:58.082Z,101922.56
2022-09-21T00:31:30.978Z,101930.69
2022-09-21T00:34:00.001Z,101916.78
2022-09-21T00:36:28.875Z,101927.81
2022-09-21T00:38:58.906Z,101922.56
2022-09-21T00:41:28.071Z,101919.69
2022-09-21T00:44:30.557Z,101931.00
2022-09-21T00:47:03.993Z,101928.97
2022-09-21T00:49:33.987Z,101934.94
2022-09-21T00:52:05.342Z,101938.50
2022-09-21T00:54:38.565Z,101940.69
2022-09-21T00:57:07.996Z,101944.06
2022-09-21T00:59:40.152Z,101939.34
2022-09-21T01:02:09.147Z,101942.22
2022-09-21T01:04:37.061Z,101950.53
2022-09-21T01:07:10.697Z,101947.13
2022-09-21T01:09:38.359Z,101949.69
2022-09-21T01:12:18.842Z,101947.81
2022-09-21T01:14:58.035Z,101948.84
2022-09-21T01:17:35.284Z,101946.81
2022-09-21T01:20:27.140Z,101955.97
2022-09-21T01:23:17.717Z,101952.75
2022-09-21T01:26:02.345Z,101950.03
2022-09-21T01:28:43.185Z,101959.34
2022-09-21T01:31:18.580Z,101955.44
2022-09-21T01:33:50.376Z,101958.84
2022-09-21T01:36:22.110Z,101957.81
2022-09-21T01:38:53.061Z,101953.75
2022-09-21T01:41:26.003Z,101964.25
2022-09-21T01:43:57.576Z,101964.09
2022-09-21T01:46:33.890Z,101961.69
2022-09-21T01:49:10.644Z,101962.03
2022-09-21T01:51:43.549Z,101969.34
2022-09-21T01:54:15.784Z,101960.50
2022-09-21T01:56:51.843Z,101961.69
2022-09-21T01:59:27.291Z,101954.75
2022-09-21T02:02:00.729Z,101960.50
2022-09-21T02:04:28.530Z,101965.09
2022-09-21T02:06:56.722Z,101963.06
2022-09-21T02:09:27.290Z,101960.34
2022-09-21T02:11:54.877Z,101971.34
2022-09-21T02:14:25.410Z,101962.88
2022-09-21T02:17:07.411Z,101968.47
2022-09-21T02:19:41.847Z,101962.22
2022-09-21T02:22:14.608Z,101972.22
2022-09-21T02:24:45.315Z,101957.47
2022-09-21T02:27:24.384Z,101966.63
2022-09-21T02:30:00.231Z,101964.75
2022-09-21T02:32:37.902Z,101952.75
2022-09-21T02:35:11.910Z,101967.81
2022-09-21T02:37:46.067Z,101968.47
2022-09-21T02:40:24.355Z,101958.81
2022-09-21T02:42:57.811Z,101956.28
2022-09-21T02:45:30.357Z,101961.69
2022-09-21T02:48:02.177Z,101962.72
2022-09-21T02:50:36.322Z,101967.47
2022-09-21T02:53:06.941Z,101966.59
2022-09-21T02:55:36.863Z,101962.22
2022-09-21T02:58:09.095Z,101967.13
2022-09-21T03:00:37.743Z,101970.16
2022-09-21T03:03:18.116Z,101963.22
2022-09-21T03:05:49.694Z,101966.59
2022-09-21T03:08:17.800Z,101969.47
2022-09-21T03:10:46.695Z,101971.66
2022-09-21T03:13:14.326Z,101967.28
2022-09-21T03:15:42.515Z,101967.78
2022-09-21T03:18:11.309Z,101968.41
2022-09-21T03:20:42.527Z,101970.13
2022-09-21T03:23:10.090Z,101973.53
2022-09-21T03:25:38.024Z,101975.53
2022-09-21T03:28:06.040Z,101978.78
2022-09-21T03:30:33.653Z,101978.94
2022-09-21T03:33:01.169Z,101979.78
2022-09-21T03:35:28.802Z,101981.28
2022-09-21T03:37:57.967Z,101984.16
2022-09-21T03:40:26.837Z,101981.28
2022-09-21T03:42:56.695Z,101977.88
2022-09-21T03:45:24.741Z,101987.69
2022-09-21T03:47:55.759Z,101977.88
2022-09-21T03:50:23.510Z,101979.88
2022-09-21T03:52:51.335Z,101985.41
2022-09-21T03:55:20.495Z,101981.19
2022-09-21T03:57:48.320Z,101985.25
2022-09-21T04:00:16.646Z,101983.88
2022-09-21T04:02:44.562Z,101983.22
2022-09-21T04:05:14.829Z,101981.06
2022-09-21T04:07:45.615Z,101982.59
2022-09-21T04:10:15.634Z,101986.19
2022-09-21T04:12:45.904Z,101988.91
2022-09-21T04:15:15.364Z,101987.25
2022-09-21T04:17:43.224Z,101987.41
2022-09-21T04:20:10.993Z,101990.63
2022-09-21T04:22:43.133Z,101988.44
2022-09-21T04:25:12.604Z,101989.13
2022-09-21T04:27:40.963Z,101989.13
2022-09-21T04:30:12.075Z,101987.44
2022-09-21T04:32:40.154Z,101989.09
2022-09-21T04:35:08.640Z,101993.81
2022-09-21T04:37:36.708Z,101988.22
2022-09-21T04:40:05.100Z,101991.25
2022-09-21T04:42:33.259Z,101981.19
2022-09-21T04:45:00.998Z,101995.88
2022-09-21T04:47:31.543Z,101994.03
2022-09-21T04:49:59.211Z,101996.75
2022-09-21T04:52:26.859Z,102007.69
2022-09-21T04:54:54.474Z,102000.94
2022-09-21T04:57:22.119Z,102003.97
2022-09-21T04:59:49.662Z,102003.97
2022-09-21T05:02:17.262Z,102002.09
2022-09-21T05:04:50.683Z,101999.56
2022-09-21T05:07:18.797Z,102006.19
2022-09-21T05:10:03.212Z,102013.00
2022-09-21T05:12:31.208Z,102014.28
2022-09-21T05:14:58.760Z,102014.06
2022-09-21T05:17:26.539Z,102018.66
2022-09-21T05:19:55.467Z,102004.41
2022-09-21T05:22:23.281Z,102023.38
2022-09-21T05:24:50.826Z,102022.75
2022-09-21T05:27:18.417Z,102018.69
2022-09-21T05:29:46.557Z,102020.75
2022-09-21T05:32:21.599Z,102025.78
2022-09-21T05:35:00.230Z,102022.75
2022-09-21T05:37:45.069Z,102030.22
2022-09-21T05:40:14.101Z,102032.94
2022-09-21T05:42:42.429Z,102037.47
2022-09-21T05:45:15.170Z,102025.28
2022-09-21T05:47:55.063Z,102036.09
2022-09-21T05:50:36.077Z,102032.38
2022-09-21T05:53:19.188Z,102040.31
2022-09-21T05:55:56.077Z,102038.66
2022-09-21T05:58:32.742Z,102045.47
2022-09-21T06:01:16.423Z,102042.41
2022-09-21T06:03:44.548Z,102055.06
2022-09-21T06:06:13.419Z,102049.44
2022-09-21T06:08:41.033Z,102053.53
2022-09-21T06:11:08.578Z,102056.28
2022-09-21T06:13:37.367Z,102056.50
2022-09-21T06:16:05.799Z,102064.09
2022-09-21T06:18:38.292Z,102062.63
2022-09-21T06:21:06.449Z,102065.19
2022-09-21T06:23:35.910Z,102067.75
2022-09-21T06:26:04.060Z,102061.63
2022-09-21T06:28:31.906Z,102065.91
2022-09-21T06:30:59.537Z,102061.72
2022-09-21T06:33:27.229Z,102062.38
2022-09-21T06:35:55.913Z,102064.25
2022-09-21T06:38:24.069Z,102068.31
2022-09-21T06:40:53.978Z,102064.59
2022-09-21T06:43:22.370Z,102058.69
2022-09-21T06:45:57.199Z,102059.22
2022-09-21T06:48:25.476Z,102061.75
2022-09-21T06:50:57.843Z,102063.97
2022-09-21T06:53:25.498Z,102069.22
2022-09-21T06:55:54.769Z,102072.28
2022-09-21T06:58:22.382Z,102072.31
2022-09-21T07:00:50.079Z,102072.16
2022-09-21T07:03:18.146Z,102067.59
2022-09-21T07:05:47.187Z,102070.63
2022-09-21T07:11:04.211Z,102069.44
2022-09-21T07:13:32.055Z,102065.38
2022-09-21T07:15:59.813Z,102073.88
2022-09-21T07:18:27.415Z,102069.94
2022-09-21T07:20:55.214Z,102070.81
2022-09-21T07:23:23.061Z,102080.66
2022-09-21T07:25:52.534Z,102079.81
2022-09-21T07:28:21.713Z,102087.44
2022-09-21T07:30:49.881Z,102079.28
2022-09-21T07:33:17.485Z,102084.19
2022-09-21T07:35:52.083Z,102083.88
2022-09-21T07:38:20.067Z,102087.06
2022-09-21T07:40:47.709Z,102079.13
2022-09-21T07:43:15.932Z,102081.81
2022-09-21T07:45:52.725Z,102078.75
2022-09-21T07:48:20.430Z,102085.53
2022-09-21T07:50:49.108Z,102088.75
2022-09-21T07:53:17.574Z,102084.63
2022-09-21T07:55:45.283Z,102086.00
2022-09-21T07:58:30.502Z,102077.13
2022-09-21T08:01:01.026Z,102080.00
2022-09-21T08:03:28.863Z,102080.97
2022-09-21T08:05:59.679Z,102079.91
2022-09-21T08:08:27.663Z,102084.28
2022-09-21T08:10:55.738Z,102087.66
2022-09-21T08:13:23.345Z,102084.09
2022-09-21T08:16:00.331Z,102082.00
2022-09-21T08:18:28.564Z,102083.66
2022-09-21T08:20:56.702Z,102082.94
2022-09-21T08:23:26.128Z,102081.75
2022-09-21T08:25:53.759Z,102084.91
2022-09-21T08:28:21.340Z,102080.22
2022-09-21T08:30:48.982Z,102086.09
2022-09-21T08:33:18.070Z,102082.38
2022-09-21T08:35:53.097Z,102083.59
2022-09-21T08:38:20.716Z,102077.81
2022-09-21T08:40:49.258Z,102084.34
2022-09-21T08:43:31.117Z,102076.09
2022-09-21T08:46:00.232Z,102076.91
2022-09-21T08:48:36.677Z,102084.00
2022-09-21T08:51:08.128Z,102079.16
2022-09-21T08:53:39.262Z,102079.81
2022-09-21T08:56:07.233Z,102077.09
2022-09-21T08:58:40.535Z,102078.50
2022-09-21T09:01:29.464Z,102082.19
2022-09-21T09:04:18.108Z,102077.69
2022-09-21T09:06:53.253Z,102084.84
2022-09-21T09:09:51.626Z,102091.31
2022-09-21T09:12:34.164Z,102087.84
2022-09-21T09:15:14.455Z,102090.25
2022-09-21T09:17:51.671Z,102086.06
2022-09-21T09:20:25.240Z,102090.38
2022-09-21T09:23:06.366Z,102097.81
2022-09-21T09:25:38.594Z,102086.84
2022-09-21T09:28:18.249Z,102088.34
2022-09-21T09:30:46.227Z,102094.06
2022-09-21T09:33:21.808Z,102091.34
2022-09-21T09:35:58.852Z,102092.56
2022-09-21T09:38:33.233Z,102096.84
2022-09-21T09:41:13.270Z,102091.78
2022-09-21T09:43:54.136Z,102092.28
2022-09-21T09:46:31.423Z,102100.25
2022-09-21T09:49:24.788Z,102098.47
2022-09-21T09:51:54.305Z,102093.31
2022-09-21T09:54:25.082Z,102096.13
2022-09-21T09:56:53.341Z,102095.59
2022-09-21T09:59:35.576Z,102086.00
2022-09-21T10:02:05.644Z,102086.69
2022-09-21T10:04:34.647Z,102081.88
2022-09-21T10:07:03.674Z,102086.78
2022-09-21T10:09:32.954Z,102082.16
2022-09-21T10:12:06.840Z,102080.53
2022-09-21T10:14:37.277Z,102085.25
2022-09-21T10:17:08.688Z,102078.38
2022-09-21T10:19:38.118Z,102074.16
2022-09-21T10:22:07.155Z,102077.00
2022-09-21T10:24:37.384Z,102075.69
2022-09-21T10:27:07.569Z,102070.03
2022-09-21T10:29:42.432Z,102074.94
2022-09-21T10:32:22.331Z,102065.34
2022-09-21T10:35:14.907Z,102069.00
2022-09-21T10:37:46.306Z,102069.00
2022-09-21T10:40:28.393Z,102068.72
2022-09-21T10:42:58.548Z,102061.56
2022-09-21T10:45:28.011Z,102063.34
2022-09-21T10:47:58.389Z,102067.84
2022-09-21T10:50:30.347Z,102067.47
2022-09-21T10:53:02.788Z,102073.19
2022-09-21T10:55:32.880Z,102063.63
2022-09-21T10:58:01.023Z,102064.72
2022-09-21T11:00:38.281Z,102064.72
2022-09-21T11:03:32.628Z,102057.22
2022-09-21T11:06:06.272Z,102058.25
2022-09-21T11:08:42.184Z,102062.59
2022-09-21T11:11:33.763Z,102067.09
2022-09-21T11:14:08.206Z,102064.84
2022-09-21T11:16:42.393Z,102057.34
2022-09-21T11:19:19.700Z,102054.69
2022-09-21T11:21:53.092Z,102061.28
2022-09-21T11:24:32.039Z,102058.72
2022-09-21T11:27:04.386Z,102059.56
2022-09-21T11:29:37.894Z,102052.97
2022-09-21T11:32:15.616Z,102050.69
2022-09-21T11:35:01.359Z,102048.41
2022-09-21T11:37:48.530Z,102051.47
2022-09-21T11:40:32.975Z,102048.31
2022-09-21T11:43:16.373Z,102051.59
2022-09-21T11:45:57.480Z,102049.34
2022-09-21T11:48:47.218Z,102041.97
2022-09-21T11:51:38.423Z,102041.41
2022-09-21T11:54:44.550Z,102034.81
2022-09-21T11:57:21.843Z,102035.69
2022-09-21T12:00:15.958Z,102037.56
2022-09-21T12:03:08.143Z,102028.75
2022-09-21T12:05:43.878Z,102039.41
2022-09-21T12:08:33.839Z,102028.56
2022-09-21T12:11:12.575Z,102034.09
2022-09-21T12:13:50.491Z,102033.22
2022-09-21T12:16:26.735Z,102022.63
2022-09-21T12:19:04.209Z,102016.56
2022-09-21T12:21:36.657Z,102015.13
2022-09-21T12:24:06.622Z,102006.75
2022-09-21T12:26:39.895Z,102015.19
2022-09-21T12:29:16.154Z,102008.94
2022-09-21T12:31:52.420Z,102005.59
2022-09-21T12:34:24.962Z,102007.47
2022-09-21T12:37:05.457Z,102013.16
2022-09-21T12:39:40.166Z,102008.56
2022-09-21T12:42:18.408Z,102009.38
2022-09-21T12:44:53.726Z,102006.66
2022-09-21T12:47:29.686Z,102012.72
2022-09-21T12:50:05.095Z,102001.78
2022-09-21T12:52:34.440Z,102002.56
2022-09-21T12:55:09.213Z,101999.81
2022-09-21T12:58:15.180Z,101994.63
2022-09-21T13:00:52.766Z,101996.31
2022-09-21T13:03:28.719Z,101998.00
2022-09-21T13:06:12.366Z,101990.66
2022-09-21T13:08:44.918Z,101992.94
2022-09-21T13:11:12.872Z,101995.25
2022-09-21T13:13:53.299Z,101979.66
2022-09-21T13:16:29.345Z,101977.09
2022-09-21T13:18:59.640Z,101979.38
2022-09-21T13:21:29.857Z,101981.97
2022-09-21T13:24:00.649Z,101978.22
2022-09-21T13:26:35.708Z,101977.78
2022-09-21T13:29:28.120Z,101982.84
2022-09-21T13:32:00.488Z,101975.69
2022-09-21T13:34:31.037Z,101982.84
2022-09-21T13:37:27.285Z,101981.53
2022-09-21T13:40:41.064Z,101987.03
2022-09-21T13:43:58.539Z,101976.69
2022-09-21T13:46:58.982Z,101966.75
2022-09-21T13:49:33.598Z,101963.50
2022-09-21T13:52:04.975Z,101956.50
2022-09-21T13:54:37.719Z,101954.81
2022-09-21T13:57:19.196Z,101955.66
2022-09-21T13:59:49.677Z,101956.94
2022-09-21T14:02:32.342Z,101951.53
2022-09-21T14:05:07.574Z,101951.97
2022-09-21T14:07:36.906Z,101955.59
2022-09-21T14:10:08.261Z,101950.53
2022-09-21T14:12:44.381Z,101950.38
2022-09-21T14:15:35.332Z,101961.38
2022-09-21T14:18:20.769Z,101951.47
2022-09-21T14:21:18.274Z,101954.66
2022-09-21T14:24:21.404Z,101962.00
2022-09-21T14:26:55.121Z,101952.16
2022-09-21T14:29:27.170Z,101952.31
2022-09-21T14:31:58.239Z,101949.59
2022-09-21T14:34:36.803Z,101952.50
2022-09-21T14:37:10.682Z,101948.94
2022-09-21T14:39:42.762Z,101942.00
2022-09-21T14:42:18.005Z,101942.59
2022-09-21T14:44:46.734Z,101932.31
2022-09-21T14:47:55.676Z,101939.03
2022-09-21T14:50:32.544Z,101931.03
2022-09-21T14:53:27.999Z,101943.84
2022-09-21T14:56:22.472Z,101928.69
2022-09-21T14:59:03.722Z,101930.97
2022-09-21T15:01:41.336Z,101933.31
2022-09-21T15:04:29.998Z,101929.50
2022-09-21T15:07:26.522Z,101932.00
2022-09-21T15:10:33.403Z,101923.59
2022-09-21T15:13:11.449Z,101924.41
2022-09-21T15:15:45.396Z,101933.03
2022-09-21T15:18:20.041Z,101912.44
2022-09-21T15:21:00.033Z,101916.19
2022-09-21T15:23:32.309Z,101912.59
2022-09-21T15:26:03.545Z,101915.34
2022-09-21T15:28:51.965Z,101911.56
2022-09-21T15:31:25.175Z,101909.88
2022-09-21T15:33:54.234Z,101908.22
2022-09-21T15:36:24.289Z,101912.81
2022-09-21T15:38:54.073Z,101909.25
2022-09-21T15:41:41.055Z,101911.75
2022-09-21T15:44:15.914Z,101910.47
2022-09-21T15:46:46.605Z,101904.38
2022-09-21T15:49:17.664Z,101910.06
2022-09-21T15:51:46.263Z,101905.47
2022-09-21T15:54:29.930Z,101905.88
2022-09-21T15:56:57.632Z,101907.78
2022-09-21T15:59:25.511Z,101916.19
2022-09-21T16:01:56.371Z,101910.94
2022-09-21T16:04:26.976Z,101913.22
2022-09-21T16:07:04.474Z,101911.53
2022-09-21T16:09:42.479Z,101911.53
2022-09-21T16:12:32.255Z,101920.53
2022-09-21T16:15:04.089Z,101911.53
2022-09-21T16:17:37.708Z,101916.38
2022-09-21T16:20:19.619Z,101917.78
2022-09-21T16:22:48.701Z,101920.50
2022-09-21T16:25:25.770Z,101925.13
2022-09-21T16:27:55.447Z,101922.41
2022-09-21T16:30:48.630Z,101916.50
2022-09-21T16:33:39.827Z,101924.50
2022-09-21T16:36:44.107Z,101922.63
2022-09-21T16:39:15.460Z,101924.94
2022-09-21T16:41:48.432Z,101928.09
2022-09-21T16:44:20.676Z,101922.84
2022-09-21T16:46:52.339Z,101925.38
2022-09-21T16:49:21.765Z,101923.25
2022-09-21T16:51:50.328Z,101925.38
2022-09-21T16:54:20.038Z,101925.78
2022-09-21T16:56:48.966Z,101922.41
2022-09-21T16:59:21.640Z,101914.63
2022-09-21T17:01:54.113Z,101918.59
2022-09-21T17:04:25.319Z,101922.38
2022-09-21T17:06:54.010Z,101925.31
2022-09-21T17:09:29.572Z,101924.25
2022-09-21T17:12:01.425Z,101922.56
2022-09-21T17:14:33.032Z,101922.31
2022-09-21T17:17:00.878Z,101920.81
2022-09-21T17:19:28.498Z,101922.88
2022-09-21T17:21:56.067Z,101920.38
2022-09-21T17:24:46.337Z,101927.94
2022-09-21T17:27:13.244Z,101916.78
2022-09-21T17:29:47.548Z,101923.28
2022-09-21T17:32:16.669Z,101920.97
2022-09-21T17:34:44.785Z,101924.69
2022-09-21T17:37:12.388Z,101929.25
2022-09-21T17:39:41.611Z,101931.09
2022-09-21T17:42:18.884Z,101926.22
2022-09-21T17:45:03.760Z,101930.00
2022-09-21T17:47:34.044Z,101923.25
2022-09-21T17:50:19.432Z,101925.13
2022-09-21T17:53:05.148Z,101926.38
2022-09-21T17:55:33.416Z,101933.28
2022-09-21T17:58:15.076Z,101925.63
2022-09-21T18:00:51.506Z,101928.50
2022-09-21T18:03:22.390Z,101930.97
2022-09-21T18:05:51.432Z,101930.34
2022-09-21T18:08:19.680Z,101934.66
2022-09-21T18:10:59.356Z,101935.69
2022-09-21T18:13:41.141Z,101944.03
2022-09-21T18:16:26.967Z,101939.75
2022-09-21T18:19:04.089Z,101941.38
2022-09-21T18:21:36.442Z,101938.16
2022-09-21T18:24:15.815Z,101942.09
2022-09-21T18:26:44.193Z,101937.06
2022-09-21T18:29:41.831Z,101942.69
2022-09-21T18:32:35.022Z,101946.66
2022-09-21T18:35:22.605Z,101940.09
2022-09-21T18:38:02.725Z,101943.38
2022-09-21T18:40:37.376Z,101937.69
2022-09-21T18:43:22.608Z,101937.03
2022-09-21T18:45:56.448Z,101933.38
2022-09-21T18:48:39.756Z,101937.31
2022-09-21T18:51:17.576Z,101938.56
2022-09-21T18:53:47.774Z,101944.66
2022-09-21T18:56:16.384Z,101941.28
2022-09-21T18:58:44.378Z,101938.28
2022-09-21T19:01:15.205Z,101946.84
2022-09-21T19:03:44.019Z,101943.84
2022-09-21T19:06:25.380Z,101946.94
2022-09-21T19:09:00.602Z,101953.91
2022-09-21T19:11:34.871Z,101938.69
2022-09-21T19:14:13.289Z,101941.22
2022-09-21T19:16:48.960Z,101943.75
2022-09-21T19:19:28.279Z,101942.53
2022-09-21T19:22:02.879Z,101940.56
2022-09-21T19:24:38.081Z,101944.06
2022-09-21T19:27:17.473Z,101943.19
2022-09-21T19:29:57.734Z,101940.75
2022-09-21T19:32:35.840Z,101949.00
2022-09-21T19:35:16.877Z,101947.16
2022-09-21T19:37:44.726Z,101943.41
2022-09-21T19:40:12.907Z,101946.13
2022-09-21T19:42:53.693Z,101944.97
2022-09-21T19:45:27.689Z,101946.69
2022-09-21T19:48:04.555Z,101952.34
2022-09-21T19:50:49.746Z,101944.16
2022-09-21T19:53:35.661Z,101954.88
2022-09-21T19:56:24.458Z,101955.69
2022-09-21T19:59:10.173Z,101947.44
2022-09-21T20:01:44.062Z,101952.59
2022-09-21T20:04:16.164Z,101950.81
2022-09-21T20:06:48.904Z,101943.31
2022-09-21T20:09:22.634Z,101951.47
2022-09-21T20:11:56.785Z,101953.25
2022-09-21T20:14:33.835Z,101959.44
2022-09-21T20:17:08.553Z,101962.53
2022-09-21T20:19:46.294Z,101964.69
2022-09-21T20:22:16.665Z,101953.34
2022-09-21T20:24:54.648Z,101955.53
2022-09-21T20:27:29.818Z,101956.94
2022-09-21T20:29:57.706Z,101956.09
2022-09-21T20:32:25.589Z,101945.38
2022-09-21T20:34:54.544Z,101945.13
2022-09-21T20:37:23.583Z,101950.06
2022-09-21T20:39:51.352Z,101940.78
2022-09-21T20:42:21.950Z,101946.22
2022-09-21T20:44:49.611Z,101938.91
2022-09-21T20:47:18.807Z,101943.22
2022-09-21T20:49:47.514Z,101941.72
2022-09-21T20:52:17.515Z,101940.53
2022-09-21T20:54:48.998Z,101948.16
2022-09-21T20:57:17.378Z,101944.88
2022-09-21T20:59:45.441Z,101957.44
2022-09-21T21:02:13.906Z,101960.16
2022-09-21T21:04:41.631Z,101956.13
2022-09-21T21:07:09.894Z,101950.69
2022-09-21T21:09:38.825Z,101953.13
2022-09-21T21:12:06.876Z,101962.38
2022-09-21T21:14:34.454Z,101962.81
2022-09-21T21:17:02.224Z,101957.06
2022-09-21T21:19:31.454Z,101961.00
2022-09-21T21:21:59.072Z,101953.72
2022-09-21T21:24:42.253Z,101957.84
2022-09-21T21:27:14.657Z,101955.31
2022-09-21T21:29:42.930Z,101963.16
2022-09-21T21:32:10.966Z,101959.56
2022-09-21T21:34:38.561Z,101961.63
2022-09-21T21:37:06.504Z,101957.72
2022-09-21T21:39:34.560Z,101960.25
2022-09-21T21:42:02.219Z,101955.19
2022-09-21T21:44:31.154Z,101954.19
2022-09-21T21:47:15.120Z,101956.91
2022-09-21T21:49:46.486Z,101955.94
2022-09-21T21:52:14.067Z,101962.41
2022-09-21T21:54:41.639Z,101965.94
2022-09-21T21:57:10.011Z,101957.97
2022-09-21T21:59:38.884Z,101957.34
2022-09-21T22:02:06.487Z,101953.88
2022-09-21T22:04:34.068Z,101955.88
2022-09-21T22:07:01.644Z,101958.59
2022-09-21T22:09:29.228Z,101956.25
2022-09-21T22:11:58.201Z,101957.81
2022-09-21T22:14:26.285Z,101954.44
2022-09-21T22:16:55.225Z,101955.97
2022-09-21T22:19:22.809Z,101955.69
2022-09-21T22:21:54.247Z,101956.56
2022-09-21T22:24:23.040Z,101955.56
2022-09-21T22:26:50.970Z,101949.34
2022-09-21T22:29:18.576Z,101953.91
2022-09-21T22:31:48.234Z,101953.91
2022-09-21T22:34:17.863Z,101957.31
2022-09-21T22:36:45.502Z,101958.84
2022-09-21T22:39:13.836Z,101958.97
2022-09-21T22:41:43.108Z,101961.69
2022-09-21T22:44:11.540Z,101956.44
2022-09-21T22:46:39.576Z,101954.94
2022-09-21T22:49:07.559Z,101952.41
2022-09-21T22:51:37.836Z,101952.03
2022-09-21T22:54:05.641Z,101957.66
2022-09-21T22:56:34.350Z,101955.63
2022-09-21T22:59:04.227Z,101951.75
2022-09-21T23:01:34.309Z,101948.66
2022-09-21T23:04:04.021Z,101948.66
2022-09-21T23:06:33.839Z,101948.13
2022-09-21T23:09:05.870Z,101954.59
2022-09-21T23:11:35.446Z,101946.13
2022-09-21T23:14:03.517Z,101955.78
2022-09-21T23:16:31.983Z,101949.69
2022-09-21T23:19:00.294Z,101945.25
2022-09-21T23:21:29.716Z,101940.88
2022-09-21T23:23:59.761Z,101942.22
2022-09-21T23:26:31.065Z,101938.50
2022-09-21T23:29:00.610Z,101942.78
2022-09-21T23:31:29.455Z,101947.53
2022-09-21T23:33:58.591Z,101942.63
2022-09-21T23:36:28.404Z,101937.72
2022-09-21T23:38:56.602Z,101936.56
2022-09-21T23:41:25.890Z,101934.53
2022-09-21T23:43:55.618Z,101937.09
2022-09-21T23:46:25.873Z,101931.50
2022-09-21T23:48:53.728Z,101943.53
2022-09-21T23:51:21.973Z,101941.38
2022-09-21T23:53:49.938Z,101936.13
2022-09-21T23:56:19.858Z,101942.56
2022-09-21T23:58:48.257Z,101933.56
